createdAt,value
2023-03-05T00:00:16.436Z,66.57
2023-03-05T00:03:03.121Z,65.95
2023-03-05T00:05:48.344Z,66.98
2023-03-05T00:08:34.323Z,67.40
2023-03-05T00:11:21.076Z,67.38
2023-03-05T00:14:06.767Z,66.75
2023-03-05T00:16:52.098Z,67.19
2023-03-05T00:19:37.486Z,66.84
2023-03-05T00:22:22.808Z,66.82
2023-03-05T00:25:08.783Z,67.20
2023-03-05T00:27:54.391Z,68.64
2023-03-05T00:30:40.605Z,68.34
2023-03-05T00:33:26.123Z,68.80
2023-03-05T00:36:11.716Z,69.73
2023-03-05T00:38:58.243Z,69.25
2023-03-05T00:41:44.202Z,68.51
2023-03-05T00:44:30.224Z,69.96
2023-03-05T00:47:15.499Z,69.04
2023-03-05T00:50:03.163Z,69.22
2023-03-05T00:52:48.760Z,68.71
2023-03-05T00:55:34.088Z,68.46
2023-03-05T00:58:19.270Z,69.79
2023-03-05T01:01:05.933Z,69.06
2023-03-05T01:03:52.038Z,69.43
2023-03-05T01:06:37.613Z,69.16
2023-03-05T01:09:22.768Z,68.84
2023-03-05T01:12:08.355Z,68.61
2023-03-05T01:14:54.011Z,69.07
2023-03-05T01:17:39.401Z,68.71
2023-03-05T01:20:25.095Z,68.66
2023-03-05T01:23:11.452Z,68.95
2023-03-05T01:25:58.781Z,68.50
2023-03-05T01:28:44.744Z,68.89
2023-03-05T01:31:30.400Z,67.17
2023-03-05T01:34:16.203Z,67.81
2023-03-05T01:37:01.394Z,67.40
2023-03-05T01:39:47.074Z,67.28
2023-03-05T01:42:32.322Z,67.68
2023-03-05T01:45:18.646Z,67.97
2023-03-05T01:48:04.878Z,67.67
2023-03-05T01:50:50.236Z,67.71
2023-03-05T01:53:36.795Z,67.21
2023-03-05T01:56:22.513Z,66.85
2023-03-05T01:59:08.000Z,67.16
2023-03-05T02:01:56.544Z,66.42
2023-03-05T02:04:46.460Z,66.08
2023-03-05T02:07:32.361Z,66.65
2023-03-05T02:10:24.489Z,66.21
2023-03-05T02:13:13.517Z,66.39
2023-03-05T02:16:00.017Z,66.37
2023-03-05T02:18:45.523Z,65.98
2023-03-05T02:21:43.130Z,65.64
2023-03-05T02:24:36.841Z,64.77
2023-03-05T02:27:27.898Z,65.48
2023-03-05T02:30:12.999Z,66.12
2023-03-05T02:32:58.921Z,66.12
2023-03-05T02:35:45.410Z,66.93
2023-03-05T02:38:31.003Z,66.87
2023-03-05T02:41:16.502Z,67.10
2023-03-05T02:44:02.355Z,67.46
2023-03-05T02:46:47.621Z,67.32
2023-03-05T02:49:32.832Z,67.87
2023-03-05T02:52:18.222Z,68.13
2023-03-05T02:55:04.417Z,67.84
2023-03-05T02:57:49.467Z,68.42
2023-03-05T03:00:34.774Z,68.20
2023-03-05T03:03:20.115Z,68.54
2023-03-05T03:06:06.127Z,68.16
2023-03-05T03:08:51.855Z,68.15
2023-03-05T03:11:37.462Z,68.92
2023-03-05T03:14:22.963Z,68.26
2023-03-05T03:17:14.826Z,68.49
2023-03-05T03:20:00.918Z,68.15
2023-03-05T03:22:46.851Z,69.13
2023-03-05T03:25:32.507Z,68.48
2023-03-05T03:28:17.879Z,68.83
2023-03-05T03:31:03.440Z,69.86
2023-03-05T03:33:49.633Z,69.27
2023-03-05T03:36:35.116Z,69.27
2023-03-05T03:39:21.105Z,68.63
2023-03-05T03:42:06.430Z,68.13
2023-03-05T03:44:52.343Z,67.98
2023-03-05T03:47:37.680Z,67.61
2023-03-05T03:50:23.172Z,68.06
2023-03-05T03:53:09.337Z,67.40
2023-03-05T03:55:58.629Z,67.15
2023-03-05T03:58:44.679Z,66.64
2023-03-05T04:01:29.816Z,67.16
2023-03-05T04:04:15.560Z,66.70
2023-03-05T04:07:00.695Z,67.04
2023-03-05T04:09:45.880Z,66.52
2023-03-05T04:12:31.329Z,65.81
2023-03-05T04:15:17.655Z,66.00
2023-03-05T04:18:02.926Z,66.44
2023-03-05T04:20:48.463Z,66.15
2023-03-05T04:23:34.034Z,65.94
2023-03-05T04:26:19.471Z,66.23
2023-03-05T04:29:05.579Z,65.41
2023-03-05T04:31:50.801Z,66.30
2023-03-05T04:34:37.972Z,66.64
2023-03-05T04:37:24.611Z,67.74
2023-03-05T04:40:11.101Z,68.45
2023-03-05T04:42:56.492Z,68.66
2023-03-05T04:45:43.778Z,68.17
2023-03-05T04:48:29.487Z,68.22
2023-03-05T04:51:14.874Z,67.44
2023-03-05T04:54:00.459Z,67.06
2023-03-05T04:56:45.974Z,67.51
2023-03-05T04:59:32.258Z,67.62
2023-03-05T05:02:17.487Z,67.49
2023-03-05T05:05:02.950Z,68.24
2023-03-05T05:07:48.675Z,68.09
2023-03-05T05:10:33.815Z,68.08
2023-03-05T05:13:19.286Z,68.87
2023-03-05T05:16:09.149Z,68.94
2023-03-05T05:18:54.282Z,68.45
2023-03-05T05:21:39.849Z,69.62
2023-03-05T05:24:25.132Z,69.12
2023-03-05T05:27:10.360Z,69.53
2023-03-05T05:29:56.037Z,69.21
2023-03-05T05:32:41.544Z,69.76
2023-03-05T05:35:27.004Z,69.25
2023-03-05T05:38:12.301Z,68.82
2023-03-05T05:41:09.715Z,69.01
2023-03-05T05:43:55.033Z,69.67
2023-03-05T05:46:40.536Z,69.40
2023-03-05T05:49:25.605Z,69.88
2023-03-05T05:52:11.100Z,70.45
2023-03-05T05:54:56.485Z,70.04
2023-03-05T05:57:41.710Z,69.48
2023-03-05T06:00:27.149Z,69.52
2023-03-05T06:03:12.374Z,69.67
2023-03-05T06:05:57.783Z,69.54
2023-03-05T06:08:43.776Z,68.77
2023-03-05T06:11:29.092Z,67.65
2023-03-05T06:14:14.393Z,67.81
2023-03-05T06:16:59.804Z,67.60
2023-03-05T06:19:45.659Z,68.31
2023-03-05T06:22:30.789Z,69.77
2023-03-05T06:25:16.459Z,69.07
2023-03-05T06:28:01.858Z,68.65
2023-03-05T06:30:47.525Z,68.18
2023-03-05T06:33:34.163Z,67.10
2023-03-05T06:36:21.395Z,67.77
2023-03-05T06:39:07.391Z,66.41
2023-03-05T06:41:52.574Z,67.65
2023-03-05T06:44:41.074Z,67.17
2023-03-05T06:47:26.308Z,67.88
2023-03-05T06:50:12.300Z,67.77
2023-03-05T06:52:57.848Z,67.45
2023-03-05T06:55:43.371Z,67.66
2023-03-05T06:58:28.748Z,67.88
2023-03-05T07:01:15.260Z,67.88
2023-03-05T07:04:00.790Z,67.35
2023-03-05T07:06:46.457Z,66.92
2023-03-05T07:09:32.007Z,66.35
2023-03-05T07:12:17.719Z,67.25
2023-03-05T07:15:02.928Z,66.43
2023-03-05T07:17:48.409Z,66.74
2023-03-05T07:20:35.750Z,66.96
2023-03-05T07:23:21.102Z,66.85
2023-03-05T07:26:07.028Z,66.10
2023-03-05T07:28:52.951Z,66.55
2023-03-05T07:31:38.770Z,66.62
2023-03-05T07:34:26.094Z,66.06
2023-03-05T07:37:13.975Z,66.74
2023-03-05T07:39:59.146Z,67.28
2023-03-05T07:42:44.815Z,68.29
2023-03-05T07:45:44.193Z,67.84
2023-03-05T07:48:29.556Z,68.74
2023-03-05T07:51:17.682Z,68.51
2023-03-05T07:54:03.058Z,68.78
2023-03-05T07:56:48.352Z,68.96
2023-03-05T07:59:33.839Z,68.82
2023-03-05T08:02:19.187Z,69.31
2023-03-05T08:05:04.807Z,68.53
2023-03-05T08:07:50.240Z,68.16
2023-03-05T08:10:37.245Z,68.86
2023-03-05T08:13:22.425Z,68.13
2023-03-05T08:16:13.240Z,68.35
2023-03-05T08:18:59.004Z,68.79
2023-03-05T08:21:45.200Z,68.79
2023-03-05T08:24:31.010Z,67.99
2023-03-05T08:27:16.365Z,67.97
2023-03-05T08:30:02.203Z,68.28
2023-03-05T08:32:49.991Z,67.74
2023-03-05T08:35:35.252Z,67.79
2023-03-05T08:38:21.160Z,67.24
2023-03-05T08:41:06.599Z,68.03
2023-03-05T08:43:52.111Z,68.79
2023-03-05T08:46:40.372Z,69.16
2023-03-05T08:49:25.623Z,68.66
2023-03-05T08:52:10.999Z,68.39
2023-03-05T08:54:56.782Z,68.12
2023-03-05T08:57:42.341Z,67.53
2023-03-05T09:00:27.666Z,67.21
2023-03-05T09:03:12.964Z,66.74
2023-03-05T09:06:03.473Z,65.59
2023-03-05T09:08:48.990Z,65.32
2023-03-05T09:11:34.678Z,65.66
2023-03-05T09:14:20.100Z,64.54
2023-03-05T09:17:05.642Z,64.58
2023-03-05T09:19:50.796Z,64.24
2023-03-05T09:22:36.184Z,64.80
2023-03-05T09:25:21.575Z,64.79
2023-03-05T09:28:07.769Z,65.21
2023-03-05T09:30:53.268Z,65.04
2023-03-05T09:33:39.683Z,66.24
2023-03-05T09:36:28.284Z,68.13
2023-03-05T09:39:13.847Z,69.12
2023-03-05T09:42:20.292Z,70.94
2023-03-05T09:45:29.833Z,71.82
2023-03-05T09:48:35.164Z,72.53
2023-03-05T09:51:29.388Z,72.70
2023-03-05T09:54:43.480Z,73.45
2023-03-05T09:57:48.950Z,73.85
2023-03-05T10:00:37.110Z,75.02
2023-03-05T10:03:30.218Z,74.06
2023-03-05T10:06:35.326Z,73.84
2023-03-05T10:09:36.976Z,74.36
2023-03-05T10:12:37.855Z,73.99
2023-03-05T10:15:38.653Z,73.50
2023-03-05T10:18:30.190Z,73.90
2023-03-05T10:21:15.583Z,73.89
2023-03-05T10:24:30.550Z,74.68
2023-03-05T10:27:51.173Z,74.14
2023-03-05T10:31:14.498Z,74.92
2023-03-05T10:34:12.336Z,75.95
2023-03-05T10:37:03.227Z,75.51
2023-03-05T10:39:56.430Z,74.31
2023-03-05T10:42:56.494Z,72.55
2023-03-05T10:45:45.590Z,71.42
2023-03-05T10:48:37.583Z,70.04
2023-03-05T10:51:34.193Z,69.94
2023-03-05T10:54:37.741Z,68.83
2023-03-05T10:57:41.497Z,68.42
2023-03-05T11:00:31.017Z,68.72
2023-03-05T11:03:24.179Z,68.06
2023-03-05T11:06:15.754Z,67.79
2023-03-05T11:09:32.338Z,67.37
2023-03-05T11:12:26.481Z,67.92
2023-03-05T11:15:12.109Z,67.98
2023-03-05T11:18:17.418Z,68.72
2023-03-05T11:21:12.600Z,68.42
2023-03-05T11:24:24.470Z,67.28
2023-03-05T11:27:36.624Z,65.90
2023-03-05T11:30:33.396Z,65.33
2023-03-05T11:33:22.312Z,64.98
2023-03-05T11:36:46.563Z,66.63
2023-03-05T11:39:36.422Z,67.55
2023-03-05T11:42:21.982Z,68.39
2023-03-05T11:45:21.047Z,69.28
2023-03-05T11:48:25.570Z,70.37
2023-03-05T11:51:43.416Z,71.24
2023-03-05T11:54:42.301Z,72.12
2023-03-05T11:57:34.900Z,72.24
2023-03-05T12:00:30.906Z,72.03
2023-03-05T12:03:29.934Z,71.44
2023-03-05T12:06:37.586Z,71.53
2023-03-05T12:09:30.553Z,71.32
2023-03-05T12:12:16.088Z,71.51
2023-03-05T12:15:22.395Z,71.67
2023-03-05T12:18:12.608Z,71.31
2023-03-05T12:21:00.935Z,70.95
2023-03-05T12:23:58.100Z,70.22
2023-03-05T12:26:53.345Z,70.19
2023-03-05T12:29:52.467Z,70.17
2023-03-05T12:32:43.921Z,69.54
2023-03-05T12:35:36.750Z,68.91
2023-03-05T12:38:30.984Z,68.58
2023-03-05T12:41:22.626Z,67.95
2023-03-05T12:44:08.093Z,67.71
2023-03-05T12:47:11.866Z,67.47
2023-03-05T12:49:57.321Z,67.16
2023-03-05T12:52:46.081Z,67.88
2023-03-05T12:55:36.908Z,68.42
2023-03-05T12:58:31.500Z,68.42
2023-03-05T13:05:39.243Z,68.47
2023-03-05T13:08:31.246Z,68.12
2023-03-05T13:11:20.741Z,68.04
2023-03-05T13:14:39.534Z,67.70
2023-03-05T13:17:56.953Z,65.51
2023-03-05T13:20:42.130Z,65.93
2023-03-05T13:23:28.820Z,65.67
2023-03-05T13:26:15.751Z,66.16
2023-03-05T13:29:10.180Z,66.23
2023-03-05T13:32:01.501Z,66.52
2023-03-05T13:34:48.061Z,67.28
2023-03-05T13:37:36.794Z,67.08
2023-03-05T13:40:27.867Z,66.87
2023-03-05T13:43:18.407Z,64.82
2023-03-05T13:46:04.605Z,64.15
2023-03-05T13:48:52.481Z,65.38
2023-03-05T13:51:44.984Z,64.63
2023-03-05T13:54:30.586Z,66.38
2023-03-05T13:57:43.772Z,66.34
2023-03-05T14:00:37.303Z,65.69
2023-03-05T14:03:28.277Z,65.58
2023-03-05T14:06:19.668Z,65.99
2023-03-05T14:09:08.474Z,66.73
2023-03-05T14:12:19.597Z,65.56
2023-03-05T14:15:21.942Z,65.82
2023-03-05T14:18:19.314Z,65.36
2023-03-05T14:21:10.823Z,65.65
2023-03-05T14:23:56.042Z,65.39
2023-03-05T14:26:49.350Z,65.59
2023-03-05T14:29:34.820Z,65.48
2023-03-05T14:32:35.847Z,65.58
2023-03-05T14:35:25.195Z,65.72
2023-03-05T14:38:22.295Z,65.93
2023-03-05T14:41:39.624Z,64.77
2023-03-05T14:44:25.089Z,64.37
2023-03-05T14:47:10.523Z,64.27
2023-03-05T14:49:56.157Z,63.40
2023-03-05T14:52:41.892Z,62.38
2023-03-05T14:55:29.760Z,63.11
2023-03-05T14:58:18.256Z,63.15
2023-03-05T15:01:04.065Z,63.62
2023-03-05T15:03:49.218Z,64.47
2023-03-05T15:06:37.480Z,65.26
2023-03-05T15:09:22.998Z,66.01
2023-03-05T15:12:11.489Z,67.50
2023-03-05T15:14:57.485Z,67.82
2023-03-05T15:17:45.385Z,68.76
2023-03-05T15:20:31.574Z,70.14
2023-03-05T15:23:16.702Z,69.90
2023-03-05T15:26:03.164Z,69.79
2023-03-05T15:28:48.365Z,69.20
2023-03-05T15:31:33.510Z,69.30
2023-03-05T15:34:20.281Z,69.58
2023-03-05T15:37:05.814Z,68.92
2023-03-05T15:39:53.228Z,69.22
2023-03-05T15:42:40.088Z,69.50
2023-03-05T15:45:25.719Z,69.43
2023-03-05T15:48:11.853Z,69.00
2023-03-05T15:50:57.341Z,68.58
2023-03-05T15:53:42.719Z,69.39
2023-03-05T15:56:28.359Z,68.77
2023-03-05T15:59:13.482Z,69.25
2023-03-05T16:01:59.299Z,68.85
2023-03-05T16:04:44.809Z,69.57
2023-03-05T16:07:32.803Z,69.20
2023-03-05T16:10:22.191Z,69.71
2023-03-05T16:13:12.042Z,69.81
2023-03-05T16:15:58.206Z,70.56
2023-03-05T16:18:46.418Z,69.63
2023-03-05T16:21:32.061Z,69.69
2023-03-05T16:24:17.569Z,68.81
2023-03-05T16:27:03.263Z,68.39
2023-03-05T16:29:51.483Z,68.19
2023-03-05T16:32:38.642Z,68.46
2023-03-05T16:35:24.299Z,68.23
2023-03-05T16:38:10.148Z,68.07
2023-03-05T16:41:07.710Z,68.36
2023-03-05T16:43:54.721Z,68.33
2023-03-05T16:46:40.344Z,68.19
2023-03-05T16:49:26.217Z,67.18
2023-03-05T16:52:18.649Z,67.00
2023-03-05T16:55:05.736Z,67.21
2023-03-05T16:57:51.001Z,67.45
2023-03-05T17:00:36.697Z,67.13
2023-03-05T17:03:22.073Z,66.91
2023-03-05T17:06:19.635Z,66.75
2023-03-05T17:09:05.305Z,66.75
2023-03-05T17:11:54.410Z,66.96
2023-03-05T17:14:39.834Z,66.25
2023-03-05T17:17:25.303Z,66.77
2023-03-05T17:20:13.504Z,66.83
2023-03-05T17:22:58.731Z,66.87
2023-03-05T17:25:44.551Z,66.63
2023-03-05T17:28:29.603Z,66.67
2023-03-05T17:31:15.329Z,66.88
2023-03-05T17:34:01.646Z,67.68
2023-03-05T17:36:47.047Z,68.53
2023-03-05T17:39:32.756Z,68.26
2023-03-05T17:42:18.618Z,68.91
2023-03-05T17:45:04.127Z,70.29
2023-03-05T17:47:50.567Z,69.49
2023-03-05T17:50:35.970Z,70.68
2023-03-05T17:53:22.902Z,70.70
2023-03-05T17:56:13.176Z,70.34
2023-03-05T17:58:58.798Z,71.17
2023-03-05T18:01:44.187Z,71.84
2023-03-05T18:04:29.513Z,71.36
2023-03-05T18:07:14.859Z,70.82
2023-03-05T18:10:00.337Z,70.87
2023-03-05T18:12:45.849Z,70.09
2023-03-05T18:15:31.296Z,70.78
2023-03-05T18:18:17.618Z,70.88
2023-03-05T18:21:03.127Z,70.90
2023-03-05T18:23:49.653Z,70.64
2023-03-05T18:26:35.016Z,71.15
2023-03-05T18:29:20.585Z,70.74
2023-03-05T18:32:06.150Z,70.54
2023-03-05T18:34:51.898Z,71.97
2023-03-05T18:37:37.147Z,71.11
2023-03-05T18:40:25.530Z,71.32
2023-03-05T18:43:11.237Z,71.32
2023-03-05T18:45:57.006Z,71.17
2023-03-05T18:48:43.093Z,70.96
2023-03-05T18:51:29.744Z,71.33
2023-03-05T18:54:15.319Z,71.98
2023-03-05T18:57:00.962Z,71.75
2023-03-05T18:59:46.280Z,72.02
2023-03-05T19:02:32.465Z,71.79
2023-03-05T19:05:18.542Z,71.91
2023-03-05T19:08:03.732Z,72.31
2023-03-05T19:10:51.765Z,71.65
2023-03-05T19:13:41.298Z,71.92
2023-03-05T19:16:29.799Z,72.48
2023-03-05T19:19:19.484Z,72.02
2023-03-05T19:22:05.365Z,72.59
2023-03-05T19:24:50.916Z,73.61
2023-03-05T19:27:37.533Z,73.60
2023-03-05T19:30:22.998Z,73.12
2023-03-05T19:33:09.192Z,72.69
2023-03-05T19:35:56.806Z,73.18
2023-03-05T19:38:41.965Z,72.32
2023-03-05T19:41:27.350Z,72.40
2023-03-05T19:44:13.004Z,72.26
2023-03-05T19:46:58.436Z,72.13
2023-03-05T19:49:43.998Z,71.82
2023-03-05T19:52:29.538Z,72.74
2023-03-05T19:55:16.430Z,72.50
2023-03-05T20:01:18.665Z,73.00
2023-03-05T20:04:05.339Z,72.87
2023-03-05T20:06:51.261Z,72.86
2023-03-05T20:09:36.732Z,72.52
2023-03-05T20:12:22.863Z,72.44
2023-03-05T20:15:08.344Z,72.69
2023-03-05T20:17:53.561Z,71.97
2023-03-05T20:20:38.744Z,71.65
2023-03-05T20:23:24.668Z,72.77
2023-03-05T20:26:09.795Z,73.14
2023-03-05T20:28:56.614Z,73.14
2023-03-05T20:31:41.943Z,73.55
2023-03-05T20:34:27.589Z,73.80
2023-03-05T20:37:12.989Z,73.36
2023-03-05T20:39:58.367Z,73.52
2023-03-05T20:42:43.837Z,73.59
2023-03-05T20:45:28.968Z,74.00
2023-03-05T20:48:14.937Z,74.45
2023-03-05T20:51:14.246Z,74.57
2023-03-05T20:54:04.455Z,73.85
2023-03-05T20:56:50.279Z,73.32
2023-03-05T20:59:35.726Z,74.15
2023-03-05T21:02:21.630Z,74.02
2023-03-05T21:05:07.614Z,74.35
2023-03-05T21:07:53.500Z,74.04
2023-03-05T21:10:38.790Z,74.33
2023-03-05T21:13:24.273Z,74.34
2023-03-05T21:16:13.537Z,73.76
2023-03-05T21:18:59.001Z,74.20
2023-03-05T21:21:44.458Z,74.32
2023-03-05T21:25:17.979Z,74.72
2023-03-05T21:28:12.943Z,74.24
2023-03-05T21:30:58.522Z,75.65
2023-03-05T21:33:44.439Z,76.00
2023-03-05T21:36:29.985Z,77.23
2023-03-05T21:39:15.308Z,77.42
2023-03-05T21:42:00.829Z,76.68
2023-03-05T21:44:46.009Z,77.15
2023-03-05T21:47:31.717Z,76.95
2023-03-05T21:50:17.111Z,77.93
2023-03-05T21:53:03.109Z,78.11
2023-03-05T21:56:00.515Z,78.16
2023-03-05T21:58:50.177Z,77.20
2023-03-05T22:01:35.759Z,76.77
2023-03-05T22:04:20.964Z,77.08
2023-03-05T22:07:06.617Z,76.99
2023-03-05T22:09:59.223Z,76.44
2023-03-05T22:13:20.253Z,76.60
2023-03-05T22:16:07.541Z,77.91
2023-03-05T22:18:53.471Z,76.78
2023-03-05T22:21:40.217Z,77.58
2023-03-05T22:24:25.890Z,78.33
2023-03-05T22:27:11.362Z,78.34
2023-03-05T22:29:56.720Z,78.29
2023-03-05T22:32:41.963Z,78.12
2023-03-05T22:35:27.720Z,78.78
2023-03-05T22:38:13.883Z,78.56
2023-03-05T22:41:00.089Z,78.47
2023-03-05T22:43:47.075Z,78.66
2023-03-05T22:46:32.673Z,78.78
2023-03-05T22:49:18.129Z,78.61
2023-03-05T22:52:04.001Z,78.15
2023-03-05T22:54:49.147Z,77.89
2023-03-05T22:57:34.612Z,78.06
2023-03-05T23:00:22.505Z,78.34
2023-03-05T23:03:07.905Z,78.50
2023-03-05T23:05:53.600Z,78.31
2023-03-05T23:08:39.033Z,77.84
2023-03-05T23:11:24.510Z,77.46
2023-03-05T23:14:09.685Z,76.63
2023-03-05T23:16:55.358Z,77.06
2023-03-05T23:19:40.961Z,77.21
2023-03-05T23:22:26.160Z,76.27
2023-03-05T23:25:13.199Z,76.33
2023-03-05T23:27:59.535Z,76.26
2023-03-05T23:30:45.087Z,76.61
2023-03-05T23:33:30.608Z,75.95
2023-03-05T23:36:16.338Z,75.91
2023-03-05T23:39:01.994Z,75.70
2023-03-05T23:41:47.788Z,74.88
2023-03-05T23:44:33.087Z,74.42
2023-03-05T23:47:18.474Z,74.65
2023-03-05T23:50:06.165Z,74.33
2023-03-05T23:52:51.882Z,74.41
2023-03-05T23:55:46.668Z,74.05
2023-03-05T23:58:32.392Z,73.84
